Hoboken, Belgium
Current Conditions -  °F | °C
As of 4:20 PM on Friday 24 Oct 2014 (Local Time) from EBAW Reporting Station
Light Rain Light Rain  
Wind Chill: 55°   Ceiling: 1400
Heat Index: 55°   Visibility: 4mi
Dew Point: 52°   Wind: 9mph
Humidity: 88%   Direction: 200°SSW
Pressure: 30.03"   Gusts: NA
Location:  51.18°N, 4.35°E
Report Text: EBAW 241420Z 20008KT 6000 -DZRA FEW007 BKN014 13/11 Q1017 TEMPO 3000 -DZRA BKN008
Loading
Personal Weather Stations






























Interactive Weather Map
Tropical Storm Tracking
New forecast layout! Learn more

10-Day Weather Forecast

Advertisements
Track Severe Weather on mobile